Overton's Hourly Summary for Wednesday, April 19, 2017
Hour Temp
(f)
RH
(%)
Solar Rad.
(MJ/m2)
Rainfall
(in)
Wind
(mph)
4/19/2017 12:00 AM 65 94 0 0 0.2
4/19/2017 1:00 AM 63 97 0 0 0.04
4/19/2017 2:00 AM 62 98 0 0 0
4/19/2017 3:00 AM 62 98 0 0 0.01
4/19/2017 4:00 AM 63 98 0 0 0.01
4/19/2017 5:00 AM 63 98 0 0 0.29
4/19/2017 6:00 AM 64 98 0 0 0.43
4/19/2017 7:00 AM 65 98 0 0 0.18
4/19/2017 8:00 AM 66 97 0.06 0.01 0.02
4/19/2017 9:00 AM 67 96 0.28 0 0.69
4/19/2017 10:00 AM 69 87 0.74 0 1.31
4/19/2017 11:00 AM 72 80 1.05 0 2.84
4/19/2017 12:00 PM 75 76 1.73 0 5.48
4/19/2017 1:00 PM 79 65 2.74 0 5.71
4/19/2017 2:00 PM 82 64 2.83 0 4.67
4/19/2017 3:00 PM 81 65 1.65 0 3.57
4/19/2017 4:00 PM 73 85 0.74 0.12 4.43
4/19/2017 5:00 PM 78 75 2.07 0 1.24
4/19/2017 6:00 PM 73 92 0.44 0.05 5.44
4/19/2017 7:00 PM 71 90 0.52 0 0.63
4/19/2017 8:00 PM 71 92 0.11 0 0.08
4/19/2017 9:00 PM 69 93 0 0 1.28
4/19/2017 10:00 PM 69 97 0 0 0.02
4/19/2017 11:00 PM 69 93 0 0 0.04
Data Summary 69 88 14.96 0.18 1.61